sensor_id;sensor_type;location;lat;lon;timestamp;pressure;altitude;pressure_sealevel;temperature;humidity
74372;BME280;62885;51.374;6.170;2022-10-22T00:01:13;100737.84;;;13.39;89.20
74372;BME280;62885;51.374;6.170;2022-10-22T00:03:39;100742.38;;;13.38;88.92
74372;BME280;62885;51.374;6.170;2022-10-22T00:06:05;100744.91;;;13.40;88.80
74372;BME280;62885;51.374;6.170;2022-10-22T00:08:31;100741.78;;;13.35;88.78
74372;BME280;62885;51.374;6.170;2022-10-22T00:10:56;100746.03;;;13.37;89.43
74372;BME280;62885;51.374;6.170;2022-10-22T00:13:22;100738.22;;;13.34;88.99
74372;BME280;62885;51.374;6.170;2022-10-22T00:15:47;100736.41;;;13.35;88.91
74372;BME280;62885;51.374;6.170;2022-10-22T00:18:13;100719.69;;;13.31;89.33
74372;BME280;62885;51.374;6.170;2022-10-22T00:20:39;100730.31;;;13.33;89.22
74372;BME280;62885;51.374;6.170;2022-10-22T00:23:04;100737.66;;;13.31;88.81
74372;BME280;62885;51.374;6.170;2022-10-22T00:25:30;100740.88;;;13.25;89.12
74372;BME280;62885;51.374;6.170;2022-10-22T00:27:55;100746.25;;;13.25;89.17
74372;BME280;62885;51.374;6.170;2022-10-22T00:30:20;100746.97;;;13.27;88.84
74372;BME280;62885;51.374;6.170;2022-10-22T00:32:46;100740.03;;;13.24;89.26
74372;BME280;62885;51.374;6.170;2022-10-22T00:35:11;100740.03;;;13.24;88.96
74372;BME280;62885;51.374;6.170;2022-10-22T00:37:37;100737.53;;;13.32;88.89
74372;BME280;62885;51.374;6.170;2022-10-22T00:40:03;100742.19;;;13.30;88.91
74372;BME280;62885;51.374;6.170;2022-10-22T00:42:29;100734.09;;;13.30;88.82
74372;BME280;62885;51.374;6.170;2022-10-22T00:47:58;100745.72;;;13.31;89.03
74372;BME280;62885;51.374;6.170;2022-10-22T00:50:33;100727.63;;;13.33;88.76
74372;BME280;62885;51.374;6.170;2022-10-22T00:52:59;100726.16;;;13.29;88.70
74372;BME280;62885;51.374;6.170;2022-10-22T00:55:27;100732.41;;;13.29;89.02
74372;BME280;62885;51.374;6.170;2022-10-22T00:57:54;100725.31;;;13.28;88.35
74372;BME280;62885;51.374;6.170;2022-10-22T01:00:21;100733.97;;;13.32;88.59
74372;BME280;62885;51.374;6.170;2022-10-22T01:02:49;100734.09;;;13.30;88.68
74372;BME280;62885;51.374;6.170;2022-10-22T01:05:15;100743.88;;;13.31;88.44
74372;BME280;62885;51.374;6.170;2022-10-22T01:07:47;100739.78;;;13.27;88.35
74372;BME280;62885;51.374;6.170;2022-10-22T01:18:21;100739.56;;;13.19;88.92
74372;BME280;62885;51.374;6.170;2022-10-22T01:20:59;100734.78;;;13.23;88.85
74372;BME280;62885;51.374;6.170;2022-10-22T01:28:53;100726.75;;;13.11;89.42
74372;BME280;62885;51.374;6.170;2022-10-22T01:31:22;100721.47;;;13.21;89.33
74372;BME280;62885;51.374;6.170;2022-10-22T01:33:48;100725.84;;;13.22;89.06
74372;BME280;62885;51.374;6.170;2022-10-22T01:36:16;100720.03;;;13.17;89.00
74372;BME280;62885;51.374;6.170;2022-10-22T01:38:44;100712.81;;;13.18;88.68
74372;BME280;62885;51.374;6.170;2022-10-22T01:41:10;100712.69;;;13.19;89.08
74372;BME280;62885;51.374;6.170;2022-10-22T01:43:35;100715.50;;;13.18;89.13
74372;BME280;62885;51.374;6.170;2022-10-22T01:46:02;100723.72;;;13.16;89.03
74372;BME280;62885;51.374;6.170;2022-10-22T01:53:53;100714.13;;;13.23;88.79
74372;BME280;62885;51.374;6.170;2022-10-22T01:59:29;100715.41;;;13.08;89.42
74372;BME280;62885;51.374;6.170;2022-10-22T02:04:48;100704.09;;;13.04;89.39
74372;BME280;62885;51.374;6.170;2022-10-22T02:07:18;100710.28;;;13.05;89.85
74372;BME280;62885;51.374;6.170;2022-10-22T02:09:46;100713.38;;;13.00;89.74
74372;BME280;62885;51.374;6.170;2022-10-22T02:12:12;100712.69;;;12.98;89.44
74372;BME280;62885;51.374;6.170;2022-10-22T02:14:40;100716.06;;;13.00;90.14
74372;BME280;62885;51.374;6.170;2022-10-22T02:17:12;100717.22;;;12.98;89.64
74372;BME280;62885;51.374;6.170;2022-10-22T02:19:58;100720.13;;;12.95;90.10
74372;BME280;62885;51.374;6.170;2022-10-22T02:22:26;100724.66;;;12.94;90.01
74372;BME280;62885;51.374;6.170;2022-10-22T02:24:51;100720.66;;;12.89;90.11
74372;BME280;62885;51.374;6.170;2022-10-22T02:29:48;100720.78;;;12.87;90.22
74372;BME280;62885;51.374;6.170;2022-10-22T02:32:22;100722.38;;;12.90;89.76
74372;BME280;62885;51.374;6.170;2022-10-22T02:34:50;100717.28;;;12.87;89.75
74372;BME280;62885;51.374;6.170;2022-10-22T02:37:17;100716.53;;;12.85;89.86
74372;BME280;62885;51.374;6.170;2022-10-22T02:39:43;100722.66;;;12.87;89.70
74372;BME280;62885;51.374;6.170;2022-10-22T02:42:09;100718.38;;;12.84;90.43
74372;BME280;62885;51.374;6.170;2022-10-22T02:44:36;100715.91;;;12.92;89.79
74372;BME280;62885;51.374;6.170;2022-10-22T02:47:02;100717.97;;;12.89;90.53
74372;BME280;62885;51.374;6.170;2022-10-22T02:49:28;100717.97;;;12.89;89.66
74372;BME280;62885;51.374;6.170;2022-10-22T02:51:53;100719.69;;;12.90;89.83
74372;BME280;62885;51.374;6.170;2022-10-22T02:54:19;100720.00;;;12.96;89.48
74372;BME280;62885;51.374;6.170;2022-10-22T02:56:44;100718.44;;;12.94;89.93
74372;BME280;62885;51.374;6.170;2022-10-22T02:59:09;100714.19;;;12.91;89.98
74372;BME280;62885;51.374;6.170;2022-10-22T03:01:35;100722.91;;;12.84;90.41
74372;BME280;62885;51.374;6.170;2022-10-22T03:04:00;100725.34;;;12.87;90.28
74372;BME280;62885;51.374;6.170;2022-10-22T03:06:26;100728.72;;;12.89;90.13
74372;BME280;62885;51.374;6.170;2022-10-22T03:08:51;100734.31;;;12.97;90.35
74372;BME280;62885;51.374;6.170;2022-10-22T03:11:16;100737.69;;;12.99;89.81
74372;BME280;62885;51.374;6.170;2022-10-22T03:13:42;100735.41;;;12.94;89.97
74372;BME280;62885;51.374;6.170;2022-10-22T03:16:07;100735.28;;;12.96;90.14
74372;BME280;62885;51.374;6.170;2022-10-22T03:18:33;100734.38;;;12.86;90.08
74372;BME280;62885;51.374;6.170;2022-10-22T03:21:05;100725.25;;;12.77;90.78
74372;BME280;62885;51.374;6.170;2022-10-22T03:23:32;100732.44;;;12.76;91.01
74372;BME280;62885;51.374;6.170;2022-10-22T03:25:57;100733.91;;;12.81;90.79
74372;BME280;62885;51.374;6.170;2022-10-22T03:28:23;100741.31;;;12.88;90.28
74372;BME280;62885;51.374;6.170;2022-10-22T03:30:51;100735.22;;;12.86;90.93
74372;BME280;62885;51.374;6.170;2022-10-22T03:33:16;100729.56;;;12.89;90.59
74372;BME280;62885;51.374;6.170;2022-10-22T03:35:43;100740.00;;;12.83;91.03
74372;BME280;62885;51.374;6.170;2022-10-22T03:38:11;100737.69;;;12.78;91.50
74372;BME280;62885;51.374;6.170;2022-10-22T03:40:37;100745.19;;;12.74;91.42
74372;BME280;62885;51.374;6.170;2022-10-22T03:43:03;100739.06;;;12.72;91.17
74372;BME280;62885;51.374;6.170;2022-10-22T03:45:28;100744.16;;;12.75;91.73
74372;BME280;62885;51.374;6.170;2022-10-22T03:47:53;100752.22;;;12.75;91.52
74372;BME280;62885;51.374;6.170;2022-10-22T03:50:19;100761.53;;;12.71;91.09
74372;BME280;62885;51.374;6.170;2022-10-22T03:52:44;100764.00;;;12.74;91.02
74372;BME280;62885;51.374;6.170;2022-10-22T03:55:09;100763.25;;;12.72;91.96
74372;BME280;62885;51.374;6.170;2022-10-22T03:57:35;100770.06;;;12.76;91.69
74372;BME280;62885;51.374;6.170;2022-10-22T04:00:00;100768.63;;;12.72;91.04
74372;BME280;62885;51.374;6.170;2022-10-22T04:02:26;100778.53;;;12.72;91.80
74372;BME280;62885;51.374;6.170;2022-10-22T04:04:51;100784.00;;;12.70;92.04
74372;BME280;62885;51.374;6.170;2022-10-22T04:07:17;100776.22;;;12.67;92.20
74372;BME280;62885;51.374;6.170;2022-10-22T04:09:42;100781.19;;;12.72;92.00
74372;BME280;62885;51.374;6.170;2022-10-22T04:12:08;100786.56;;;12.72;92.16
74372;BME280;62885;51.374;6.170;2022-10-22T04:14:34;100779.94;;;12.76;91.24
74372;BME280;62885;51.374;6.170;2022-10-22T04:16:59;100784.47;;;12.75;91.66
74372;BME280;62885;51.374;6.170;2022-10-22T04:19:25;100782.78;;;12.74;91.56
74372;BME280;62885;51.374;6.170;2022-10-22T04:21:50;100792.34;;;12.67;92.06
74372;BME280;62885;51.374;6.170;2022-10-22T04:24:16;100795.16;;;12.66;92.09
74372;BME280;62885;51.374;6.170;2022-10-22T04:26:41;100795.78;;;12.58;93.14
74372;BME280;62885;51.374;6.170;2022-10-22T04:29:07;100790.66;;;12.55;92.79
74372;BME280;62885;51.374;6.170;2022-10-22T04:31:33;100795.31;;;12.53;93.22
74372;BME280;62885;51.374;6.170;2022-10-22T04:33:59;100802.38;;;12.54;93.03
74372;BME280;62885;51.374;6.170;2022-10-22T04:36:25;100797.88;;;12.55;93.37
74372;BME280;62885;51.374;6.170;2022-10-22T04:38:58;100802.91;;;12.48;93.34
74372;BME280;62885;51.374;6.170;2022-10-22T04:41:30;100794.59;;;12.51;93.29
74372;BME280;62885;51.374;6.170;2022-10-22T04:43:56;100798.50;;;12.47;93.13
74372;BME280;62885;51.374;6.170;2022-10-22T04:46:23;100796.91;;;12.56;93.31
74372;BME280;62885;51.374;6.170;2022-10-22T04:48:50;100798.97;;;12.52;92.82
74372;BME280;62885;51.374;6.170;2022-10-22T04:51:17;100801.66;;;12.52;93.54
74372;BME280;62885;51.374;6.170;2022-10-22T04:53:43;100807.88;;;12.53;92.84
74372;BME280;62885;51.374;6.170;2022-10-22T04:58:41;100808.53;;;12.45;93.52
74372;BME280;62885;51.374;6.170;2022-10-22T05:01:18;100814.03;;;12.44;94.11
74372;BME280;62885;51.374;6.170;2022-10-22T05:03:44;100813.03;;;12.45;93.93
74372;BME280;62885;51.374;6.170;2022-10-22T05:06:11;100819.88;;;12.38;93.91
74372;BME280;62885;51.374;6.170;2022-10-22T05:08:36;100821.84;;;12.35;93.97
74372;BME280;62885;51.374;6.170;2022-10-22T05:11:10;100824.41;;;12.37;94.59
74372;BME280;62885;51.374;6.170;2022-10-22T05:13:35;100824.16;;;12.40;94.50
74372;BME280;62885;51.374;6.170;2022-10-22T05:16:01;100811.56;;;12.41;94.53
74372;BME280;62885;51.374;6.170;2022-10-22T05:18:26;100820.47;;;12.41;94.51
74372;BME280;62885;51.374;6.170;2022-10-22T05:20:51;100825.00;;;12.41;94.96
74372;BME280;62885;51.374;6.170;2022-10-22T05:23:17;100826.72;;;12.42;94.68
74372;BME280;62885;51.374;6.170;2022-10-22T05:25:42;100818.66;;;12.42;94.58
74372;BME280;62885;51.374;6.170;2022-10-22T05:28:07;100831.38;;;12.40;94.90
74372;BME280;62885;51.374;6.170;2022-10-22T05:30:33;100825.63;;;12.44;94.64
74372;BME280;62885;51.374;6.170;2022-10-22T05:32:58;100830.22;;;12.53;94.54
74372;BME280;62885;51.374;6.170;2022-10-22T05:35:23;100824.72;;;12.55;95.06
74372;BME280;62885;51.374;6.170;2022-10-22T05:37:49;100823.63;;;12.57;95.31
74372;BME280;62885;51.374;6.170;2022-10-22T05:40:14;100823.13;;;12.63;94.37
74372;BME280;62885;51.374;6.170;2022-10-22T05:42:39;100822.13;;;12.64;94.88
74372;BME280;62885;51.374;6.170;2022-10-22T05:45:05;100832.13;;;12.73;95.04
74372;BME280;62885;51.374;6.170;2022-10-22T05:47:31;100828.94;;;12.80;94.87
74372;BME280;62885;51.374;6.170;2022-10-22T05:49:56;100841.00;;;12.85;94.51
74372;BME280;62885;51.374;6.170;2022-10-22T05:52:22;100837.69;;;12.93;94.45
74372;BME280;62885;51.374;6.170;2022-10-22T05:54:48;100845.69;;;13.04;94.25
74372;BME280;62885;51.374;6.170;2022-10-22T05:57:13;100844.94;;;13.13;93.32
74372;BME280;62885;51.374;6.170;2022-10-22T05:59:38;100843.69;;;13.17;92.80
74372;BME280;62885;51.374;6.170;2022-10-22T06:02:04;100846.25;;;13.19;92.83
74372;BME280;62885;51.374;6.170;2022-10-22T06:04:29;100850.66;;;13.20;93.18
74372;BME280;62885;51.374;6.170;2022-10-22T06:06:54;100846.84;;;13.22;93.10
74372;BME280;62885;51.374;6.170;2022-10-22T06:09:26;100843.09;;;13.34;92.14
74372;BME280;62885;51.374;6.170;2022-10-22T06:11:53;100842.00;;;13.37;92.09
74372;BME280;62885;51.374;6.170;2022-10-22T06:14:20;100845.16;;;13.42;92.19
74372;BME280;62885;51.374;6.170;2022-10-22T06:16:46;100849.88;;;13.49;92.01
74372;BME280;62885;51.374;6.170;2022-10-22T06:19:12;100855.38;;;13.48;91.95
74372;BME280;62885;51.374;6.170;2022-10-22T06:21:38;100857.66;;;13.52;91.81
74372;BME280;62885;51.374;6.170;2022-10-22T06:24:04;100865.22;;;13.58;91.33
74372;BME280;62885;51.374;6.170;2022-10-22T06:26:32;100863.31;;;13.70;90.75
74372;BME280;62885;51.374;6.170;2022-10-22T06:28:58;100870.72;;;13.78;90.46
74372;BME280;62885;51.374;6.170;2022-10-22T06:31:25;100871.91;;;13.85;90.01
74372;BME280;62885;51.374;6.170;2022-10-22T06:33:51;100878.50;;;13.81;90.26
74372;BME280;62885;51.374;6.170;2022-10-22T06:36:21;100884.06;;;13.79;90.30
74372;BME280;62885;51.374;6.170;2022-10-22T06:38:50;100892.28;;;13.87;89.81
74372;BME280;62885;51.374;6.170;2022-10-22T06:41:16;100893.75;;;13.91;89.57
74372;BME280;62885;51.374;6.170;2022-10-22T06:43:43;100902.22;;;13.87;89.87
74372;BME280;62885;51.374;6.170;2022-10-22T06:46:09;100905.91;;;13.86;89.89
74372;BME280;62885;51.374;6.170;2022-10-22T06:48:36;100907.34;;;13.90;89.67
74372;BME280;62885;51.374;6.170;2022-10-22T06:51:03;100914.69;;;13.88;89.84
74372;BME280;62885;51.374;6.170;2022-10-22T06:53:29;100921.81;;;13.98;88.92
74372;BME280;62885;51.374;6.170;2022-10-22T06:55:55;100926.66;;;14.05;88.59
74372;BME280;62885;51.374;6.170;2022-10-22T06:58:20;100924.50;;;13.98;88.68
74372;BME280;62885;51.374;6.170;2022-10-22T07:00:45;100930.31;;;13.94;89.07
74372;BME280;62885;51.374;6.170;2022-10-22T07:03:12;100929.13;;;13.87;89.21
74372;BME280;62885;51.374;6.170;2022-10-22T07:05:38;100933.53;;;13.88;89.32
74372;BME280;62885;51.374;6.170;2022-10-22T07:08:03;100938.22;;;13.86;89.49
74372;BME280;62885;51.374;6.170;2022-10-22T07:10:29;100948.81;;;13.87;89.40
74372;BME280;62885;51.374;6.170;2022-10-22T07:12:54;100949.94;;;13.85;89.43
74372;BME280;62885;51.374;6.170;2022-10-22T07:15:19;100948.13;;;13.85;89.65
74372;BME280;62885;51.374;6.170;2022-10-22T07:17:45;100950.66;;;13.87;89.49
74372;BME280;62885;51.374;6.170;2022-10-22T07:20:10;100962.47;;;13.95;88.82
74372;BME280;62885;51.374;6.170;2022-10-22T07:22:36;100966.28;;;13.93;89.07
74372;BME280;62885;51.374;6.170;2022-10-22T07:25:02;100962.94;;;14.01;88.92
74372;BME280;62885;51.374;6.170;2022-10-22T07:27:28;100971.88;;;14.01;88.67
74372;BME280;62885;51.374;6.170;2022-10-22T07:29:53;100969.09;;;14.12;88.12
74372;BME280;62885;51.374;6.170;2022-10-22T07:32:18;100966.00;;;14.17;87.95
74372;BME280;62885;51.374;6.170;2022-10-22T07:34:44;100973.13;;;14.27;87.71
74372;BME280;62885;51.374;6.170;2022-10-22T07:37:09;100975.16;;;14.35;87.71
74372;BME280;62885;51.374;6.170;2022-10-22T07:39:34;100979.69;;;14.34;87.34
74372;BME280;62885;51.374;6.170;2022-10-22T07:42:00;100979.00;;;14.32;87.76
74372;BME280;62885;51.374;6.170;2022-10-22T07:44:25;100986.44;;;14.40;87.12
74372;BME280;62885;51.374;6.170;2022-10-22T07:46:50;100992.25;;;14.45;86.77
74372;BME280;62885;51.374;6.170;2022-10-22T07:49:16;100992.13;;;14.47;86.85
74372;BME280;62885;51.374;6.170;2022-10-22T07:51:41;100992.31;;;14.55;86.16
74372;BME280;62885;51.374;6.170;2022-10-22T07:54:06;100998.41;;;14.57;86.55
74372;BME280;62885;51.374;6.170;2022-10-22T07:56:32;101002.94;;;14.56;86.09
74372;BME280;62885;51.374;6.170;2022-10-22T07:58:57;101003.13;;;14.64;85.95
74372;BME280;62885;51.374;6.170;2022-10-22T08:01:23;101010.09;;;14.67;86.05
74372;BME280;62885;51.374;6.170;2022-10-22T08:03:48;101012.81;;;14.67;86.21
74372;BME280;62885;51.374;6.170;2022-10-22T08:06:13;101012.09;;;14.74;85.62
74372;BME280;62885;51.374;6.170;2022-10-22T08:08:40;101018.78;;;14.80;85.07
74372;BME280;62885;51.374;6.170;2022-10-22T08:11:05;101024.91;;;14.82;84.81
74372;BME280;62885;51.374;6.170;2022-10-22T08:13:31;101030.75;;;14.87;84.88
74372;BME280;62885;51.374;6.170;2022-10-22T08:15:58;101029.75;;;14.88;85.07
74372;BME280;62885;51.374;6.170;2022-10-22T08:18:23;101031.19;;;14.92;84.87
74372;BME280;62885;51.374;6.170;2022-10-22T08:20:49;101033.88;;;14.92;84.47
74372;BME280;62885;51.374;6.170;2022-10-22T08:23:15;101039.00;;;14.95;84.73
74372;BME280;62885;51.374;6.170;2022-10-22T08:25:40;101034.19;;;14.99;84.39
74372;BME280;62885;51.374;6.170;2022-10-22T08:28:05;101039.16;;;15.03;84.57
74372;BME280;62885;51.374;6.170;2022-10-22T08:30:31;101030.69;;;15.08;83.96
74372;BME280;62885;51.374;6.170;2022-10-22T08:32:58;101033.53;;;15.16;83.20
74372;BME280;62885;51.374;6.170;2022-10-22T08:35:23;101041.94;;;15.23;83.48
74372;BME280;62885;51.374;6.170;2022-10-22T08:37:49;101038.13;;;15.25;82.86
74372;BME280;62885;51.374;6.170;2022-10-22T08:40:36;101045.34;;;15.34;82.60
74372;BME280;62885;51.374;6.170;2022-10-22T08:48:34;101051.78;;;15.43;82.03
74372;BME280;62885;51.374;6.170;2022-10-22T08:51:01;101047.84;;;15.56;81.17
74372;BME280;62885;51.374;6.170;2022-10-22T08:53:35;101058.50;;;15.58;81.52
74372;BME280;62885;51.374;6.170;2022-10-22T08:56:01;101056.78;;;15.57;81.12
74372;BME280;62885;51.374;6.170;2022-10-22T09:00:58;101069.84;;;15.61;80.99
74372;BME280;62885;51.374;6.170;2022-10-22T09:06:12;101070.16;;;15.68;80.42
74372;BME280;62885;51.374;6.170;2022-10-22T09:08:39;101072.28;;;15.65;80.69
74372;BME280;62885;51.374;6.170;2022-10-22T09:11:14;101074.88;;;15.76;79.57
74372;BME280;62885;51.374;6.170;2022-10-22T09:13:43;101081.84;;;15.78;79.93
74372;BME280;62885;51.374;6.170;2022-10-22T09:24:40;101082.97;;;15.85;78.79
74372;BME280;62885;51.374;6.170;2022-10-22T09:27:16;101093.19;;;15.82;78.75
74372;BME280;62885;51.374;6.170;2022-10-22T09:29:43;101090.66;;;15.90;78.60
74372;BME280;62885;51.374;6.170;2022-10-22T09:32:08;101093.50;;;15.88;78.98
74372;BME280;62885;51.374;6.170;2022-10-22T09:34:34;101098.03;;;15.88;79.32
74372;BME280;62885;51.374;6.170;2022-10-22T09:37:06;101099.59;;;15.90;78.37
74372;BME280;62885;51.374;6.170;2022-10-22T09:39:42;101111.66;;;15.96;78.42
74372;BME280;62885;51.374;6.170;2022-10-22T09:42:09;101114.09;;;15.99;78.54
74372;BME280;62885;51.374;6.170;2022-10-22T09:44:36;101106.13;;;15.97;77.92
74372;BME280;62885;51.374;6.170;2022-10-22T09:47:24;101118.22;;;16.03;77.63
74372;BME280;62885;51.374;6.170;2022-10-22T09:50:04;101120.34;;;16.09;77.47
74372;BME280;62885;51.374;6.170;2022-10-22T09:52:33;101119.38;;;16.10;78.55
74372;BME280;62885;51.374;6.170;2022-10-22T09:55:01;101125.19;;;16.06;78.40
74372;BME280;62885;51.374;6.170;2022-10-22T09:57:28;101120.94;;;16.13;77.79
74372;BME280;62885;51.374;6.170;2022-10-22T09:59:54;101124.34;;;16.15;77.33
74372;BME280;62885;51.374;6.170;2022-10-22T10:02:26;101137.28;;;16.11;77.57
74372;BME280;62885;51.374;6.170;2022-10-22T10:04:54;101138.81;;;16.14;77.44
74372;BME280;62885;51.374;6.170;2022-10-22T10:07:30;101144.78;;;16.08;78.03
74372;BME280;62885;51.374;6.170;2022-10-22T10:09:56;101144.41;;;16.12;78.10
74372;BME280;62885;51.374;6.170;2022-10-22T10:12:37;101141.84;;;16.11;77.21
74372;BME280;62885;51.374;6.170;2022-10-22T10:15:27;101137.84;;;16.24;76.71
74372;BME280;62885;51.374;6.170;2022-10-22T10:23:11;101152.94;;;16.36;76.29
74372;BME280;62885;51.374;6.170;2022-10-22T10:25:47;101158.03;;;16.39;75.98
74372;BME280;62885;51.374;6.170;2022-10-22T10:36:26;101162.44;;;16.50;75.10
74372;BME280;62885;51.374;6.170;2022-10-22T10:39:03;101165.56;;;16.55;75.14
74372;BME280;62885;51.374;6.170;2022-10-22T10:49:40;101188.19;;;16.73;74.43
74372;BME280;62885;51.374;6.170;2022-10-22T10:52:17;101180.94;;;16.74;74.86
74372;BME280;62885;51.374;6.170;2022-10-22T11:00:20;101187.50;;;16.71;75.15
74372;BME280;62885;51.374;6.170;2022-10-22T11:05:52;101193.75;;;16.81;74.92
74372;BME280;62885;51.374;6.170;2022-10-22T11:08:28;101187.59;;;16.89;75.04
74372;BME280;62885;51.374;6.170;2022-10-22T11:10:58;101200.97;;;16.91;74.62
74372;BME280;62885;51.374;6.170;2022-10-22T11:16:11;101187.59;;;16.89;74.24
74372;BME280;62885;51.374;6.170;2022-10-22T11:21:31;101196.16;;;16.94;73.52
74372;BME280;62885;51.374;6.170;2022-10-22T11:24:16;101196.44;;;16.91;72.72
74372;BME280;62885;51.374;6.170;2022-10-22T11:26:49;101198.41;;;16.89;72.98
74372;BME280;62885;51.374;6.170;2022-10-22T11:29:22;101194.13;;;16.96;73.62
74372;BME280;62885;51.374;6.170;2022-10-22T11:31:50;101194.00;;;16.98;73.01
74372;BME280;62885;51.374;6.170;2022-10-22T11:34:19;101192.16;;;16.98;73.09
74372;BME280;62885;51.374;6.170;2022-10-22T11:36:47;101192.16;;;16.98;72.58
74372;BME280;62885;51.374;6.170;2022-10-22T11:42:31;101197.25;;;17.01;72.32
74372;BME280;62885;51.374;6.170;2022-10-22T11:50:24;101190.66;;;17.13;72.18
74372;BME280;62885;51.374;6.170;2022-10-22T11:53:02;101196.06;;;17.23;71.98
74372;BME280;62885;51.374;6.170;2022-10-22T11:57:59;101201.50;;;17.13;72.38
74372;BME280;62885;51.374;6.170;2022-10-22T12:00:41;101180.84;;;17.12;71.86
74372;BME280;62885;51.374;6.170;2022-10-22T12:14:01;101178.16;;;17.49;71.20
74372;BME280;62885;51.374;6.170;2022-10-22T12:16:35;101171.78;;;17.41;70.69
74372;BME280;62885;51.374;6.170;2022-10-22T12:19:11;101177.34;;;17.39;71.35
74372;BME280;62885;51.374;6.170;2022-10-22T12:21:39;101176.75;;;17.45;71.15
74372;BME280;62885;51.374;6.170;2022-10-22T12:24:06;101181.72;;;17.50;70.62
74372;BME280;62885;51.374;6.170;2022-10-22T12:26:33;101189.88;;;17.40;70.92
74372;BME280;62885;51.374;6.170;2022-10-22T12:29:01;101178.75;;;17.43;70.73
74372;BME280;62885;51.374;6.170;2022-10-22T12:31:34;101176.00;;;17.53;70.72
74372;BME280;62885;51.374;6.170;2022-10-22T12:33:59;101177.59;;;17.46;70.99
74372;BME280;62885;51.374;6.170;2022-10-22T12:36:27;101180.00;;;17.49;71.13
74372;BME280;62885;51.374;6.170;2022-10-22T12:38:52;101189.09;;;17.57;70.75
74372;BME280;62885;51.374;6.170;2022-10-22T12:41:20;101182.53;;;17.60;70.28
74372;BME280;62885;51.374;6.170;2022-10-22T12:43:46;101185.41;;;17.49;71.05
74372;BME280;62885;51.374;6.170;2022-10-22T12:46:13;101176.88;;;17.44;70.84
74372;BME280;62885;51.374;6.170;2022-10-22T12:48:42;101184.75;;;17.37;70.98
74372;BME280;62885;51.374;6.170;2022-10-22T12:51:13;101193.72;;;17.38;70.98
74372;BME280;62885;51.374;6.170;2022-10-22T12:53:47;101191.47;;;17.33;71.38
74372;BME280;62885;51.374;6.170;2022-10-22T12:56:19;101188.34;;;17.28;71.10
74372;BME280;62885;51.374;6.170;2022-10-22T12:58:49;101191.59;;;17.41;71.77
74372;BME280;62885;51.374;6.170;2022-10-22T13:01:16;101180.44;;;17.44;71.44
74372;BME280;62885;51.374;6.170;2022-10-22T13:03:50;101191.13;;;17.46;71.78
74372;BME280;62885;51.374;6.170;2022-10-22T13:11:56;101194.66;;;17.56;70.94
74372;BME280;62885;51.374;6.170;2022-10-22T13:17:35;101197.50;;;17.54;71.20
74372;BME280;62885;51.374;6.170;2022-10-22T13:20:03;101189.78;;;17.59;70.33
74372;BME280;62885;51.374;6.170;2022-10-22T13:22:33;101188.59;;;17.72;70.42
74372;BME280;62885;51.374;6.170;2022-10-22T13:25:23;101193.88;;;17.73;70.21
74372;BME280;62885;51.374;6.170;2022-10-22T13:28:00;101193.59;;;17.76;70.16
74372;BME280;62885;51.374;6.170;2022-10-22T13:30:32;101190.66;;;17.60;70.07
74372;BME280;62885;51.374;6.170;2022-10-22T13:33:02;101185.97;;;17.62;70.27
74372;BME280;62885;51.374;6.170;2022-10-22T13:35:31;101185.09;;;17.61;70.33
74372;BME280;62885;51.374;6.170;2022-10-22T13:37:58;101184.66;;;17.56;70.32
74372;BME280;62885;51.374;6.170;2022-10-22T13:40:24;101187.53;;;17.55;70.80
74372;BME280;62885;51.374;6.170;2022-10-22T13:42:49;101187.06;;;17.59;70.76
74372;BME280;62885;51.374;6.170;2022-10-22T13:45:15;101183.78;;;17.65;70.68
74372;BME280;62885;51.374;6.170;2022-10-22T13:47:44;101187.53;;;17.64;70.66
74372;BME280;62885;51.374;6.170;2022-10-22T13:50:13;101188.06;;;17.68;70.14
74372;BME280;62885;51.374;6.170;2022-10-22T13:52:45;101187.59;;;17.73;69.78
74372;BME280;62885;51.374;6.170;2022-10-22T13:55:26;101182.94;;;17.92;69.87
74372;BME280;62885;51.374;6.170;2022-10-22T13:58:08;101188.66;;;18.07;69.27
74372;BME280;62885;51.374;6.170;2022-10-22T14:00:36;101190.38;;;18.08;68.80
74372;BME280;62885;51.374;6.170;2022-10-22T14:03:02;101186.75;;;17.99;68.88
74372;BME280;62885;51.374;6.170;2022-10-22T14:05:28;101189.59;;;17.98;68.97
74372;BME280;62885;51.374;6.170;2022-10-22T14:07:58;101187.75;;;17.98;68.76
74372;BME280;62885;51.374;6.170;2022-10-22T14:10:24;101187.09;;;17.87;69.01
74372;BME280;62885;51.374;6.170;2022-10-22T14:12:51;101174.50;;;17.95;68.91
74372;BME280;62885;51.374;6.170;2022-10-22T14:15:18;101182.16;;;18.00;68.87
74372;BME280;62885;51.374;6.170;2022-10-22T14:17:46;101186.44;;;18.02;68.48
74372;BME280;62885;51.374;6.170;2022-10-22T14:20:21;101190.25;;;18.10;68.84
74372;BME280;62885;51.374;6.170;2022-10-22T14:22:48;101190.59;;;17.97;68.33
74372;BME280;62885;51.374;6.170;2022-10-22T14:25:17;101192.78;;;17.93;68.67
74372;BME280;62885;51.374;6.170;2022-10-22T14:27:43;101189.88;;;17.95;69.08
74372;BME280;62885;51.374;6.170;2022-10-22T14:30:12;101191.53;;;17.88;68.36
74372;BME280;62885;51.374;6.170;2022-10-22T14:32:38;101192.53;;;17.87;68.28
74372;BME280;62885;51.374;6.170;2022-10-22T14:35:03;101184.84;;;17.82;68.45
74372;BME280;62885;51.374;6.170;2022-10-22T14:37:29;101186.53;;;17.83;68.72
74372;BME280;62885;51.374;6.170;2022-10-22T14:39:54;101188.09;;;17.86;68.77
74372;BME280;62885;51.374;6.170;2022-10-22T14:42:28;101186.09;;;17.88;68.78
74372;BME280;62885;51.374;6.170;2022-10-22T14:44:54;101190.34;;;17.90;68.85
74372;BME280;62885;51.374;6.170;2022-10-22T14:47:19;101191.22;;;17.91;68.64
74372;BME280;62885;51.374;6.170;2022-10-22T14:49:45;101195.78;;;17.90;68.59
74372;BME280;62885;51.374;6.170;2022-10-22T14:52:10;101199.81;;;17.86;68.63